Ullin, Illinois
Current Conditions -  °F | °C
As of 12:55 PM on Sunday 23 Nov 2014 (Local Time) from KCIR Reporting Station
Light Rain Light Rain  
Wind Chill: 58°   Ceiling: 1400
Heat Index: 58°   Visibility: 4mi
Dew Point: 54°   Wind: 9mph
Humidity: 86%   Direction: 90°E
Pressure: 29.49"   Gusts: NA
Location:  37.28°N, 89.18°W
Report Text: KCIR 231855Z AUTO 09008KT 4SM -RA BKN014 OVC025 15/12 A2949 RMK AO2 P0008 T01450122
Loading
Personal Weather Stations






























Interactive Weather Map New forecast layout! Learn more

10-Day Weather Forecast

Advertisements
Track Severe Weather on mobile